Skip Navigation Links
NOAA logo - Click to go to the NOAA homepage
NOAA's National Weather Service
Alaska Aviation Weather Unit
  NWS logo - Click to go to the NWS homepage
Left Navbar Graphic     21 AKDT = 05 GMT

   
NOAA is celebrating 200 years of science, service, and stewardship. Visit the NOAA 200th celebration Web site to learn more.
USA.gov is the U.S. Government's official Web portal to all Federal, state and local government Web resources and services.
Facebook
NWS on Facebook

AAWU Home :: Display TAF Add Bookmark
TESTM WHMA2 262320Z AUTO 00000KT SKC 12/08 A2950 RMK A02 SLP991 T01150080

TESTM WHMA2 262350Z AUTO 00000KT SKC 12/08 A2951 RMK A02 SLP994 T01160079

TESTM WHMA2 270020Z AUTO 00000KT SKC 12/07 A2951 RMK A02 SLP992 T01150074

TESTM WHMA2 270050Z AUTO 00000KT SKC 12/07 A2950 RMK A02 SLP988 T01210074

TESTM WHMA2 270120Z AUTO 00000KT SKC 12/07 A2950 RMK A02 SLP989 T01220069

TESTM WHMA2 270150Z AUTO 2203KT SKC 13/03 A2950 RMK A02 SLP988 T01310034

TESTM WHMA2 270220Z AUTO 2004KT SKC 13/03 A2950 RMK A02 SLP989 T01290027

TESTM WHMA2 270250Z AUTO 2203KT SKC 14/03 A2951 RMK A02 SLP992 T01350027

TESTM WHMA2 270320Z AUTO 2103KT FEW130 13/03 A2951 RMK A02 SLP992 T01320027

TESTM WHMA2 270350Z AUTO 00000KT FEW095 13/05 A2950 RMK A02 SLP991 T01260049

TESTM WHMA2 270420Z AUTO 00000KT FEW085 12/06 A2952 RMK A02 SLP996 T01150064

TESTM WHMA2 270450Z AUTO 00000KT SCT100 11/04 A2952 RMK A02 SLP997 T01120044


NOAA's National Weather Service
Alaska Aviation Weather Unit
6930 Sand Lake Road
Anchorage, AK 99502-1845
Disclaimer
Credits
Glossary
Privacy Policy
About Us
Career Opportunities
Contact AAWU Internet Services Site last modified: April, 17th 2012